sensor_id;sensor_type;location;lat;lon;timestamp;pressure;altitude;pressure_sealevel;temperature;humidity
59787;BME280;45672;51.612;5.536;2023-10-19T00:00:39;99090.56;;;10.64;100.00
59787;BME280;45672;51.612;5.536;2023-10-19T00:03:09;99087.91;;;10.64;100.00
59787;BME280;45672;51.612;5.536;2023-10-19T00:05:35;99086.06;;;10.64;100.00
59787;BME280;45672;51.612;5.536;2023-10-19T00:08:02;99083.41;;;10.64;100.00
59787;BME280;45672;51.612;5.536;2023-10-19T00:10:41;99079.75;;;10.65;100.00
59787;BME280;45672;51.612;5.536;2023-10-19T00:13:09;99084.66;;;10.68;100.00
59787;BME280;45672;51.612;5.536;2023-10-19T00:15:40;99094.88;;;10.72;100.00
59787;BME280;45672;51.612;5.536;2023-10-19T00:18:10;99099.84;;;10.75;100.00
59787;BME280;45672;51.612;5.536;2023-10-19T00:20:42;99093.06;;;10.72;100.00
59787;BME280;45672;51.612;5.536;2023-10-19T00:23:13;99087.78;;;10.79;100.00
59787;BME280;45672;51.612;5.536;2023-10-19T00:25:46;99090.25;;;10.80;100.00
59787;BME280;45672;51.612;5.536;2023-10-19T00:28:15;99107.81;;;10.81;100.00
59787;BME280;45672;51.612;5.536;2023-10-19T00:30:42;99087.16;;;10.83;100.00
59787;BME280;45672;51.612;5.536;2023-10-19T00:33:08;99086.16;;;10.84;100.00
59787;BME280;45672;51.612;5.536;2023-10-19T00:35:42;99093.13;;;10.92;100.00
59787;BME280;45672;51.612;5.536;2023-10-19T00:38:22;99089.25;;;10.95;100.00
59787;BME280;45672;51.612;5.536;2023-10-19T00:41:04;99088.66;;;10.99;100.00
59787;BME280;45672;51.612;5.536;2023-10-19T00:43:53;99080.66;;;10.99;100.00
59787;BME280;45672;51.612;5.536;2023-10-19T00:46:37;99073.09;;;11.03;100.00
59787;BME280;45672;51.612;5.536;2023-10-19T00:49:10;99075.75;;;11.10;100.00
59787;BME280;45672;51.612;5.536;2023-10-19T00:51:49;99083.53;;;11.11;100.00
59787;BME280;45672;51.612;5.536;2023-10-19T00:54:32;99087.44;;;11.15;100.00
59787;BME280;45672;51.612;5.536;2023-10-19T00:57:01;99076.59;;;11.17;100.00
59787;BME280;45672;51.612;5.536;2023-10-19T00:59:34;99071.69;;;11.20;100.00
59787;BME280;45672;51.612;5.536;2023-10-19T01:02:09;99066.97;;;11.23;100.00
59787;BME280;45672;51.612;5.536;2023-10-19T01:04:51;99069.66;;;11.29;100.00
59787;BME280;45672;51.612;5.536;2023-10-19T01:07:21;99072.31;;;11.36;100.00
59787;BME280;45672;51.612;5.536;2023-10-19T01:09:48;99073.34;;;11.42;100.00
59787;BME280;45672;51.612;5.536;2023-10-19T01:12:17;99063.94;;;11.46;100.00
59787;BME280;45672;51.612;5.536;2023-10-19T01:17:31;99064.34;;;11.56;100.00
59787;BME280;45672;51.612;5.536;2023-10-19T01:19:59;99065.78;;;11.59;100.00
59787;BME280;45672;51.612;5.536;2023-10-19T01:22:24;99069.84;;;11.68;100.00
59787;BME280;45672;51.612;5.536;2023-10-19T01:24:52;99065.16;;;11.70;100.00
59787;BME280;45672;51.612;5.536;2023-10-19T01:27:20;99074.38;;;11.74;100.00
59787;BME280;45672;51.612;5.536;2023-10-19T01:29:46;99076.00;;;11.82;100.00
59787;BME280;45672;51.612;5.536;2023-10-19T01:32:12;99071.09;;;11.85;100.00
59787;BME280;45672;51.612;5.536;2023-10-19T01:34:40;99057.13;;;11.83;100.00
59787;BME280;45672;51.612;5.536;2023-10-19T01:37:05;99061.44;;;11.91;100.00
59787;BME280;45672;51.612;5.536;2023-10-19T01:39:32;99064.31;;;11.96;100.00
59787;BME280;45672;51.612;5.536;2023-10-19T01:42:00;99053.44;;;11.98;100.00
59787;BME280;45672;51.612;5.536;2023-10-19T01:44:25;99054.88;;;12.00;100.00
59787;BME280;45672;51.612;5.536;2023-10-19T01:46:51;99048.13;;;11.98;100.00
59787;BME280;45672;51.612;5.536;2023-10-19T01:49:17;99043.00;;;12.03;100.00
59787;BME280;45672;51.612;5.536;2023-10-19T01:51:52;99049.13;;;12.03;100.00
59787;BME280;45672;51.612;5.536;2023-10-19T01:54:19;99056.91;;;12.05;100.00
59787;BME280;45672;51.612;5.536;2023-10-19T01:56:49;99048.50;;;12.08;100.00
59787;BME280;45672;51.612;5.536;2023-10-19T01:59:16;99049.94;;;12.11;100.00
59787;BME280;45672;51.612;5.536;2023-10-19T02:01:41;99050.34;;;12.14;100.00
59787;BME280;45672;51.612;5.536;2023-10-19T02:04:10;99045.00;;;12.14;100.00
59787;BME280;45672;51.612;5.536;2023-10-19T02:06:38;99052.38;;;12.19;100.00
59787;BME280;45672;51.612;5.536;2023-10-19T02:09:11;99054.03;;;12.20;100.00
59787;BME280;45672;51.612;5.536;2023-10-19T02:11:44;99045.41;;;12.18;100.00
59787;BME280;45672;51.612;5.536;2023-10-19T02:14:14;99054.00;;;12.27;100.00
59787;BME280;45672;51.612;5.536;2023-10-19T02:16:40;99052.53;;;12.31;100.00
59787;BME280;45672;51.612;5.536;2023-10-19T02:19:06;99054.81;;;12.34;100.00
59787;BME280;45672;51.612;5.536;2023-10-19T02:21:31;99057.84;;;12.37;100.00
59787;BME280;45672;51.612;5.536;2023-10-19T02:23:57;99045.31;;;12.38;100.00
59787;BME280;45672;51.612;5.536;2023-10-19T02:26:23;99045.53;;;12.43;100.00
59787;BME280;45672;51.612;5.536;2023-10-19T02:28:51;99049.84;;;12.44;100.00
59787;BME280;45672;51.612;5.536;2023-10-19T02:31:18;99049.41;;;12.47;100.00
59787;BME280;45672;51.612;5.536;2023-10-19T02:33:46;99049.41;;;12.47;100.00
59787;BME280;45672;51.612;5.536;2023-10-19T02:36:14;99042.84;;;12.50;100.00
59787;BME280;45672;51.612;5.536;2023-10-19T02:38:42;99034.19;;;12.54;100.00
59787;BME280;45672;51.612;5.536;2023-10-19T02:41:10;99037.00;;;12.66;100.00
59787;BME280;45672;51.612;5.536;2023-10-19T02:43:36;99044.16;;;12.72;100.00
59787;BME280;45672;51.612;5.536;2023-10-19T02:46:02;99038.19;;;12.77;100.00
59787;BME280;45672;51.612;5.536;2023-10-19T02:48:29;99031.19;;;12.76;100.00
59787;BME280;45672;51.612;5.536;2023-10-19T02:50:54;99038.59;;;12.81;100.00
59787;BME280;45672;51.612;5.536;2023-10-19T02:53:19;99039.59;;;12.80;100.00
59787;BME280;45672;51.612;5.536;2023-10-19T02:55:44;99029.16;;;12.78;100.00
59787;BME280;45672;51.612;5.536;2023-10-19T02:58:10;99040.19;;;12.82;100.00
59787;BME280;45672;51.612;5.536;2023-10-19T03:00:39;99043.28;;;12.85;100.00
59787;BME280;45672;51.612;5.536;2023-10-19T03:03:05;99041.59;;;12.91;100.00
59787;BME280;45672;51.612;5.536;2023-10-19T03:05:31;99036.69;;;12.88;100.00
59787;BME280;45672;51.612;5.536;2023-10-19T03:07:58;99043.03;;;12.93;100.00
59787;BME280;45672;51.612;5.536;2023-10-19T03:10:23;99035.41;;;12.90;100.00
59787;BME280;45672;51.612;5.536;2023-10-19T03:12:50;99027.84;;;12.87;100.00
59787;BME280;45672;51.612;5.536;2023-10-19T03:15:16;99036.03;;;12.92;100.00
59787;BME280;45672;51.612;5.536;2023-10-19T03:17:45;99029.28;;;12.90;100.00
59787;BME280;45672;51.612;5.536;2023-10-19T03:20:11;99027.03;;;12.87;100.00
59787;BME280;45672;51.612;5.536;2023-10-19T03:22:36;99036.47;;;12.89;100.00
59787;BME280;45672;51.612;5.536;2023-10-19T03:25:07;99035.22;;;12.92;100.00
59787;BME280;45672;51.612;5.536;2023-10-19T03:27:51;99030.06;;;12.90;100.00
59787;BME280;45672;51.612;5.536;2023-10-19T03:30:17;99027.41;;;12.90;100.00
59787;BME280;45672;51.612;5.536;2023-10-19T03:32:44;99029.88;;;12.92;100.00
59787;BME280;45672;51.612;5.536;2023-10-19T03:35:09;99026.38;;;12.91;100.00
59787;BME280;45672;51.612;5.536;2023-10-19T03:37:40;99022.69;;;12.92;100.00
59787;BME280;45672;51.612;5.536;2023-10-19T03:40:06;99020.03;;;12.92;100.00
59787;BME280;45672;51.612;5.536;2023-10-19T03:42:34;99011.41;;;12.90;100.00
59787;BME280;45672;51.612;5.536;2023-10-19T03:45:06;99012.44;;;12.89;100.00
59787;BME280;45672;51.612;5.536;2023-10-19T03:47:38;99016.72;;;12.90;100.00
59787;BME280;45672;51.612;5.536;2023-10-19T03:50:04;99015.13;;;12.89;100.00
59787;BME280;45672;51.612;5.536;2023-10-19T03:52:36;99004.88;;;12.86;100.00
59787;BME280;45672;51.612;5.536;2023-10-19T03:55:05;99008.34;;;12.87;100.00
59787;BME280;45672;51.612;5.536;2023-10-19T03:57:36;99004.91;;;12.80;100.00
59787;BME280;45672;51.612;5.536;2023-10-19T04:00:06;99010.47;;;12.78;100.00
59787;BME280;45672;51.612;5.536;2023-10-19T04:02:36;99002.47;;;12.78;100.00
59787;BME280;45672;51.612;5.536;2023-10-19T04:05:03;99007.19;;;12.76;100.00
59787;BME280;45672;51.612;5.536;2023-10-19T04:07:29;98997.97;;;12.72;100.00
59787;BME280;45672;51.612;5.536;2023-10-19T04:09:56;99000.25;;;12.68;100.00
59787;BME280;45672;51.612;5.536;2023-10-19T04:12:23;98989.41;;;12.63;100.00
59787;BME280;45672;51.612;5.536;2023-10-19T04:14:49;98988.81;;;12.61;100.00
59787;BME280;45672;51.612;5.536;2023-10-19T04:17:14;98995.59;;;12.57;100.00
59787;BME280;45672;51.612;5.536;2023-10-19T04:19:42;98992.31;;;12.55;100.00
59787;BME280;45672;51.612;5.536;2023-10-19T04:22:09;99000.16;;;12.50;100.00
59787;BME280;45672;51.612;5.536;2023-10-19T04:24:36;98997.50;;;12.43;100.00
59787;BME280;45672;51.612;5.536;2023-10-19T04:27:01;98996.94;;;12.34;100.00
59787;BME280;45672;51.612;5.536;2023-10-19T04:29:27;98993.66;;;12.32;100.00
59787;BME280;45672;51.612;5.536;2023-10-19T04:31:53;98999.63;;;12.28;100.00
59787;BME280;45672;51.612;5.536;2023-10-19T04:34:22;98988.16;;;12.27;100.00
59787;BME280;45672;51.612;5.536;2023-10-19T04:36:50;98998.59;;;12.29;100.00
59787;BME280;45672;51.612;5.536;2023-10-19T04:39:16;98986.72;;;12.24;100.00
59787;BME280;45672;51.612;5.536;2023-10-19T04:41:45;98991.63;;;12.28;100.00
59787;BME280;45672;51.612;5.536;2023-10-19T04:44:10;98983.63;;;12.28;100.00
59787;BME280;45672;51.612;5.536;2023-10-19T04:46:36;98986.28;;;12.28;100.00
59787;BME280;45672;51.612;5.536;2023-10-19T04:49:02;98998.38;;;12.30;100.00
59787;BME280;45672;51.612;5.536;2023-10-19T04:51:29;98997.38;;;12.31;100.00
59787;BME280;45672;51.612;5.536;2023-10-19T04:53:54;98998.59;;;12.35;100.00
59787;BME280;45672;51.612;5.536;2023-10-19T04:56:20;99003.69;;;12.37;100.00
59787;BME280;45672;51.612;5.536;2023-10-19T04:58:46;99007.97;;;12.38;100.00
59787;BME280;45672;51.612;5.536;2023-10-19T05:01:12;99003.28;;;12.40;100.00
59787;BME280;45672;51.612;5.536;2023-10-19T05:03:38;99009.41;;;12.40;100.00
59787;BME280;45672;51.612;5.536;2023-10-19T05:06:04;99008.41;;;12.35;100.00
59787;BME280;45672;51.612;5.536;2023-10-19T05:08:29;99008.19;;;12.43;100.00
59787;BME280;45672;51.612;5.536;2023-10-19T05:10:55;99013.09;;;12.46;100.00
59787;BME280;45672;51.612;5.536;2023-10-19T05:13:25;99011.84;;;12.49;100.00
59787;BME280;45672;51.612;5.536;2023-10-19T05:15:51;99006.28;;;12.50;100.00
59787;BME280;45672;51.612;5.536;2023-10-19T05:18:18;99009.97;;;12.49;100.00
59787;BME280;45672;51.612;5.536;2023-10-19T05:20:44;99006.06;;;12.52;100.00
59787;BME280;45672;51.612;5.536;2023-10-19T05:23:11;99010.19;;;12.54;100.00
59787;BME280;45672;51.612;5.536;2023-10-19T05:25:38;99008.97;;;12.50;100.00
59787;BME280;45672;51.612;5.536;2023-10-19T05:28:05;99017.75;;;12.57;100.00
59787;BME280;45672;51.612;5.536;2023-10-19T05:30:30;99010.94;;;12.62;100.00
59787;BME280;45672;51.612;5.536;2023-10-19T05:32:57;99017.31;;;12.61;100.00
59787;BME280;45672;51.612;5.536;2023-10-19T05:35:23;99014.06;;;12.58;100.00
59787;BME280;45672;51.612;5.536;2023-10-19T05:37:51;99011.97;;;12.61;100.00
59787;BME280;45672;51.612;5.536;2023-10-19T05:40:16;99012.19;;;12.59;100.00
59787;BME280;45672;51.612;5.536;2023-10-19T05:42:43;99019.97;;;12.61;100.00
59787;BME280;45672;51.612;5.536;2023-10-19T05:45:08;99023.72;;;12.59;100.00
59787;BME280;45672;51.612;5.536;2023-10-19T05:47:34;99025.53;;;12.59;100.00
59787;BME280;45672;51.612;5.536;2023-10-19T05:50:00;99023.31;;;12.56;100.00
59787;BME280;45672;51.612;5.536;2023-10-19T05:52:25;99032.50;;;12.60;100.00
59787;BME280;45672;51.612;5.536;2023-10-19T05:54:50;99030.47;;;12.62;100.00
59787;BME280;45672;51.612;5.536;2023-10-19T05:57:15;99031.06;;;12.64;100.00
59787;BME280;45672;51.612;5.536;2023-10-19T05:59:41;99037.00;;;12.66;100.00
59787;BME280;45672;51.612;5.536;2023-10-19T06:02:07;99029.63;;;12.62;100.00
59787;BME280;45672;51.612;5.536;2023-10-19T06:04:33;99028.41;;;12.64;100.00
59787;BME280;45672;51.612;5.536;2023-10-19T06:06:58;99027.59;;;12.64;100.00
59787;BME280;45672;51.612;5.536;2023-10-19T06:09:23;99036.63;;;12.63;100.00
59787;BME280;45672;51.612;5.536;2023-10-19T06:11:55;99042.53;;;12.65;100.00
59787;BME280;45672;51.612;5.536;2023-10-19T06:14:20;99040.72;;;12.65;100.00
59787;BME280;45672;51.612;5.536;2023-10-19T06:16:45;99037.19;;;12.65;100.00
59787;BME280;45672;51.612;5.536;2023-10-19T06:19:10;99038.25;;;12.64;100.00
59787;BME280;45672;51.612;5.536;2023-10-19T06:21:36;99045.00;;;12.66;100.00
59787;BME280;45672;51.612;5.536;2023-10-19T06:24:01;99038.84;;;12.66;100.00
59787;BME280;45672;51.612;5.536;2023-10-19T06:26:28;99047.28;;;12.63;100.00
59787;BME280;45672;51.612;5.536;2023-10-19T06:28:53;99054.66;;;12.67;100.00
59787;BME280;45672;51.612;5.536;2023-10-19T06:31:24;99041.53;;;12.66;100.00
59787;BME280;45672;51.612;5.536;2023-10-19T06:33:49;99036.78;;;12.68;100.00
59787;BME280;45672;51.612;5.536;2023-10-19T06:36:14;99047.84;;;12.71;100.00
59787;BME280;45672;51.612;5.536;2023-10-19T06:38:39;99040.44;;;12.73;100.00
59787;BME280;45672;51.612;5.536;2023-10-19T06:41:12;99046.63;;;12.74;100.00
59787;BME280;45672;51.612;5.536;2023-10-19T06:43:40;99050.09;;;12.74;100.00
59787;BME280;45672;51.612;5.536;2023-10-19T06:46:06;99061.38;;;12.76;100.00
59787;BME280;45672;51.612;5.536;2023-10-19T06:48:33;99051.94;;;12.74;100.00
59787;BME280;45672;51.612;5.536;2023-10-19T06:50:58;99058.94;;;12.75;100.00
59787;BME280;45672;51.612;5.536;2023-10-19T06:53:25;99056.25;;;12.75;100.00
59787;BME280;45672;51.612;5.536;2023-10-19T06:55:50;99061.16;;;12.78;100.00
59787;BME280;45672;51.612;5.536;2023-10-19T06:58:16;99062.78;;;12.79;100.00
59787;BME280;45672;51.612;5.536;2023-10-19T07:00:44;99051.94;;;12.74;100.00
59787;BME280;45672;51.612;5.536;2023-10-19T07:03:10;99052.50;;;12.83;100.00
59787;BME280;45672;51.612;5.536;2023-10-19T07:05:35;99060.31;;;12.84;100.00
59787;BME280;45672;51.612;5.536;2023-10-19T07:08:00;99042.72;;;12.76;100.00
59787;BME280;45672;51.612;5.536;2023-10-19T07:10:27;99071.75;;;12.91;100.00
59787;BME280;45672;51.612;5.536;2023-10-19T07:12:55;99077.50;;;12.95;100.00
59787;BME280;45672;51.612;5.536;2023-10-19T07:15:22;99078.31;;;12.96;100.00
59787;BME280;45672;51.612;5.536;2023-10-19T07:17:48;99087.50;;;13.06;100.00
59787;BME280;45672;51.612;5.536;2023-10-19T07:20:16;99083.75;;;13.14;100.00
59787;BME280;45672;51.612;5.536;2023-10-19T07:22:55;99080.22;;;13.20;100.00
59787;BME280;45672;51.612;5.536;2023-10-19T07:25:22;99080.03;;;13.22;100.00
59787;BME280;45672;51.612;5.536;2023-10-19T07:27:48;99077.94;;;13.24;100.00
59787;BME280;45672;51.612;5.536;2023-10-19T07:30:14;99082.69;;;13.22;100.00
59787;BME280;45672;51.612;5.536;2023-10-19T07:32:41;99076.13;;;13.18;100.00
59787;BME280;45672;51.612;5.536;2023-10-19T07:35:06;99071.59;;;13.18;100.00
59787;BME280;45672;51.612;5.536;2023-10-19T07:37:31;99074.88;;;13.20;100.00
59787;BME280;45672;51.612;5.536;2023-10-19T07:39:57;99072.19;;;13.20;100.00
59787;BME280;45672;51.612;5.536;2023-10-19T07:42:23;99069.97;;;13.17;100.00
59787;BME280;45672;51.612;5.536;2023-10-19T07:44:48;99066.66;;;13.22;100.00
59787;BME280;45672;51.612;5.536;2023-10-19T07:47:14;99072.38;;;13.25;100.00
59787;BME280;45672;51.612;5.536;2023-10-19T07:49:40;99067.66;;;13.27;100.00
59787;BME280;45672;51.612;5.536;2023-10-19T07:52:06;99065.34;;;13.31;100.00
59787;BME280;45672;51.612;5.536;2023-10-19T07:54:35;99062.47;;;13.33;100.00
59787;BME280;45672;51.612;5.536;2023-10-19T07:57:02;99070.06;;;13.36;100.00
59787;BME280;45672;51.612;5.536;2023-10-19T07:59:33;99064.28;;;13.39;100.00
59787;BME280;45672;51.612;5.536;2023-10-19T08:01:59;99058.31;;;13.43;100.00
59787;BME280;45672;51.612;5.536;2023-10-19T08:04:27;99065.63;;;13.55;100.00
59787;BME280;45672;51.612;5.536;2023-10-19T08:06:53;99061.78;;;13.69;100.00
59787;BME280;45672;51.612;5.536;2023-10-19T08:09:18;99059.69;;;13.71;100.00
59787;BME280;45672;51.612;5.536;2023-10-19T08:11:48;99057.41;;;13.75;100.00
59787;BME280;45672;51.612;5.536;2023-10-19T08:14:14;99047.97;;;13.72;100.00
59787;BME280;45672;51.612;5.536;2023-10-19T08:16:39;99040.41;;;13.69;100.00
59787;BME280;45672;51.612;5.536;2023-10-19T08:19:07;99045.69;;;13.76;100.00
59787;BME280;45672;51.612;5.536;2023-10-19T08:21:32;99041.75;;;13.78;100.00
59787;BME280;45672;51.612;5.536;2023-10-19T08:23:59;99039.75;;;13.74;100.00
59787;BME280;45672;51.612;5.536;2023-10-19T08:26:28;99047.97;;;13.72;100.00
59787;BME280;45672;51.612;5.536;2023-10-19T08:28:54;99043.09;;;13.69;100.00
59787;BME280;45672;51.612;5.536;2023-10-19T08:31:19;99040.41;;;13.69;100.00
59787;BME280;45672;51.612;5.536;2023-10-19T08:33:44;99042.19;;;13.75;100.00
59787;BME280;45672;51.612;5.536;2023-10-19T08:36:18;99042.34;;;13.81;100.00
59787;BME280;45672;51.612;5.536;2023-10-19T08:38:46;99032.94;;;13.96;100.00
59787;BME280;45672;51.612;5.536;2023-10-19T08:41:11;99033.63;;;14.29;100.00
59787;BME280;45672;51.612;5.536;2023-10-19T08:43:37;99045.41;;;14.77;100.00
59787;BME280;45672;51.612;5.536;2023-10-19T08:46:05;99031.91;;;14.83;100.00
59787;BME280;45672;51.612;5.536;2023-10-19T08:48:35;99037.72;;;15.11;100.00
59787;BME280;45672;51.612;5.536;2023-10-19T08:51:03;99042.28;;;15.34;100.00
59787;BME280;45672;51.612;5.536;2023-10-19T08:53:34;99032.03;;;15.43;100.00
59787;BME280;45672;51.612;5.536;2023-10-19T08:56:05;99040.56;;;15.40;100.00
59787;BME280;45672;51.612;5.536;2023-10-19T08:58:32;99041.59;;;16.33;100.00
59787;BME280;45672;51.612;5.536;2023-10-19T09:00:57;99043.88;;;18.63;100.00
59787;BME280;45672;51.612;5.536;2023-10-19T09:03:25;99042.59;;;20.53;100.00
59787;BME280;45672;51.612;5.536;2023-10-19T09:05:50;99056.84;;;21.89;100.00
59787;BME280;45672;51.612;5.536;2023-10-19T09:08:17;99062.78;;;22.72;100.00
59787;BME280;45672;51.612;5.536;2023-10-19T09:10:44;99067.09;;;23.23;100.00
59787;BME280;45672;51.612;5.536;2023-10-19T09:13:13;99059.56;;;23.49;100.00
59787;BME280;45672;51.612;5.536;2023-10-19T09:15:43;99063.44;;;24.26;100.00
59787;BME280;45672;51.612;5.536;2023-10-19T09:18:12;99059.38;;;24.91;100.00
59787;BME280;45672;51.612;5.536;2023-10-19T09:20:41;99060.41;;;25.33;100.00
59787;BME280;45672;51.612;5.536;2023-10-19T09:23:07;99056.00;;;25.84;94.47
59787;BME280;45672;51.612;5.536;2023-10-19T09:25:33;99047.09;;;26.62;94.18
59787;BME280;45672;51.612;5.536;2023-10-19T09:28:01;99034.06;;;26.73;87.44
59787;BME280;45672;51.612;5.536;2023-10-19T09:30:29;99056.09;;;27.58;88.03
59787;BME280;45672;51.612;5.536;2023-10-19T09:32:57;99053.41;;;27.67;69.62
59787;BME280;45672;51.612;5.536;2023-10-19T09:35:24;99046.22;;;26.39;70.90
59787;BME280;45672;51.612;5.536;2023-10-19T09:37:53;99033.00;;;23.46;81.01
59787;BME280;45672;51.612;5.536;2023-10-19T09:40:19;99033.56;;;21.73;96.12
59787;BME280;45672;51.612;5.536;2023-10-19T09:42:47;99035.09;;;20.65;100.00
59787;BME280;45672;51.612;5.536;2023-10-19T09:45:18;99033.41;;;19.86;100.00
59787;BME280;45672;51.612;5.536;2023-10-19T09:47:49;99035.44;;;19.36;100.00
59787;BME280;45672;51.612;5.536;2023-10-19T09:50:15;99036.38;;;19.19;100.00
59787;BME280;45672;51.612;5.536;2023-10-19T09:52:40;99035.44;;;19.03;100.00
59787;BME280;45672;51.612;5.536;2023-10-19T09:58:01;99024.16;;;18.84;100.00
59787;BME280;45672;51.612;5.536;2023-10-19T10:00:27;99023.03;;;18.53;100.00
59787;BME280;45672;51.612;5.536;2023-10-19T10:02:57;99021.28;;;18.41;100.00
59787;BME280;45672;51.612;5.536;2023-10-19T10:10:49;99009.34;;;18.32;100.00
59787;BME280;45672;51.612;5.536;2023-10-19T10:15:52;98993.81;;;18.39;100.00
59787;BME280;45672;51.612;5.536;2023-10-19T10:18:24;99004.31;;;18.41;100.00
59787;BME280;45672;51.612;5.536;2023-10-19T10:21:11;98998.78;;;18.53;100.00
59787;BME280;45672;51.612;5.536;2023-10-19T10:23:53;99003.13;;;18.54;100.00
59787;BME280;45672;51.612;5.536;2023-10-19T10:26:22;99003.81;;;18.44;100.00
59787;BME280;45672;51.612;5.536;2023-10-19T10:29:14;99008.47;;;18.26;100.00
59787;BME280;45672;51.612;5.536;2023-10-19T10:31:48;99012.13;;;18.20;100.00
59787;BME280;45672;51.612;5.536;2023-10-19T10:37:05;99013.91;;;18.32;100.00
59787;BME280;45672;51.612;5.536;2023-10-19T10:39:33;99009.72;;;18.41;100.00
59787;BME280;45672;51.612;5.536;2023-10-19T10:42:02;99021.59;;;18.45;100.00
59787;BME280;45672;51.612;5.536;2023-10-19T10:47:10;99013.63;;;18.33;100.00
59787;BME280;45672;51.612;5.536;2023-10-19T10:52:35;99008.94;;;18.23;100.00
59787;BME280;45672;51.612;5.536;2023-10-19T10:55:08;98997.81;;;18.15;100.00
59787;BME280;45672;51.612;5.536;2023-10-19T10:57:37;98998.88;;;18.14;100.00
59787;BME280;45672;51.612;5.536;2023-10-19T11:00:08;99008.78;;;18.08;100.00
59787;BME280;45672;51.612;5.536;2023-10-19T11:05:26;99012.50;;;18.29;100.00
59787;BME280;45672;51.612;5.536;2023-10-19T11:08:13;99014.25;;;18.40;100.00
59787;BME280;45672;51.612;5.536;2023-10-19T11:10:40;99012.19;;;18.48;100.00
59787;BME280;45672;51.612;5.536;2023-10-19T11:13:11;99015.13;;;18.46;100.00
59787;BME280;45672;51.612;5.536;2023-10-19T11:15:38;99002.31;;;18.31;100.00
59787;BME280;45672;51.612;5.536;2023-10-19T11:18:04;99000.00;;;18.18;100.00
59787;BME280;45672;51.612;5.536;2023-10-19T11:20:30;98991.88;;;18.13;100.00
59787;BME280;45672;51.612;5.536;2023-10-19T11:22:57;99000.56;;;18.20;100.00
59787;BME280;45672;51.612;5.536;2023-10-19T11:25:24;98980.47;;;18.27;100.00
59787;BME280;45672;51.612;5.536;2023-10-19T11:27:56;98983.50;;;18.36;100.00
59787;BME280;45672;51.612;5.536;2023-10-19T11:30:26;98978.78;;;18.43;100.00
59787;BME280;45672;51.612;5.536;2023-10-19T11:32:53;98974.34;;;18.59;100.00
59787;BME280;45672;51.612;5.536;2023-10-19T11:35:22;98972.00;;;18.68;100.00
59787;BME280;45672;51.612;5.536;2023-10-19T11:37:51;98981.75;;;18.74;100.00
59787;BME280;45672;51.612;5.536;2023-10-19T11:40:23;98974.53;;;18.80;100.00
59787;BME280;45672;51.612;5.536;2023-10-19T11:42:49;98964.63;;;18.86;100.00
59787;BME280;45672;51.612;5.536;2023-10-19T11:45:16;98966.72;;;18.78;100.00
59787;BME280;45672;51.612;5.536;2023-10-19T11:47:43;98969.59;;;18.72;100.00
59787;BME280;45672;51.612;5.536;2023-10-19T11:50:08;98965.69;;;18.57;100.00
59787;BME280;45672;51.612;5.536;2023-10-19T11:52:37;98952.31;;;18.40;100.00
59787;BME280;45672;51.612;5.536;2023-10-19T11:55:03;98951.09;;;18.26;100.00
59787;BME280;45672;51.612;5.536;2023-10-19T11:57:30;98947.50;;;18.15;100.00
59787;BME280;45672;51.612;5.536;2023-10-19T11:59:56;98946.31;;;18.06;100.00
59787;BME280;45672;51.612;5.536;2023-10-19T12:02:22;98935.97;;;17.98;100.00
59787;BME280;45672;51.612;5.536;2023-10-19T12:04:47;98940.94;;;17.89;100.00
59787;BME280;45672;51.612;5.536;2023-10-19T12:07:12;98948.16;;;17.83;100.00
59787;BME280;45672;51.612;5.536;2023-10-19T12:09:38;98931.00;;;17.67;100.00
59787;BME280;45672;51.612;5.536;2023-10-19T12:12:09;98945.66;;;17.60;100.00
59787;BME280;45672;51.612;5.536;2023-10-19T12:14:36;98945.78;;;17.48;100.00
59787;BME280;45672;51.612;5.536;2023-10-19T12:17:01;98946.03;;;17.46;100.00
59787;BME280;45672;51.612;5.536;2023-10-19T12:19:30;98949.47;;;17.42;100.00
59787;BME280;45672;51.612;5.536;2023-10-19T12:21:56;98940.56;;;17.41;100.00
59787;BME280;45672;51.612;5.536;2023-10-19T12:24:21;98950.53;;;17.40;100.00
59787;BME280;45672;51.612;5.536;2023-10-19T12:26:48;98939.69;;;17.35;100.00
59787;BME280;45672;51.612;5.536;2023-10-19T12:29:13;98938.78;;;17.30;100.00
59787;BME280;45672;51.612;5.536;2023-10-19T12:31:42;98937.19;;;17.29;100.00
59787;BME280;45672;51.612;5.536;2023-10-19T12:34:07;98936.94;;;17.30;100.00
59787;BME280;45672;51.612;5.536;2023-10-19T12:36:34;98927.81;;;17.31;100.00
59787;BME280;45672;51.612;5.536;2023-10-19T12:39:00;98937.56;;;17.37;100.00
59787;BME280;45672;51.612;5.536;2023-10-19T12:41:26;98931.41;;;17.37;100.00
59787;BME280;45672;51.612;5.536;2023-10-19T12:43:52;98931.06;;;17.33;100.00
59787;BME280;45672;51.612;5.536;2023-10-19T12:46:22;98935.88;;;17.31;100.00
59787;BME280;45672;51.612;5.536;2023-10-19T12:48:50;98932.06;;;17.27;100.00
59787;BME280;45672;51.612;5.536;2023-10-19T12:51:15;98932.53;;;17.24;100.00
59787;BME280;45672;51.612;5.536;2023-10-19T12:53:43;98931.16;;;17.21;100.00
59787;BME280;45672;51.612;5.536;2023-10-19T12:56:11;98924.91;;;17.16;100.00
59787;BME280;45672;51.612;5.536;2023-10-19T12:58:37;98917.41;;;17.01;100.00
59787;BME280;45672;51.612;5.536;2023-10-19T13:01:03;98915.41;;;16.79;100.00
59787;BME280;45672;51.612;5.536;2023-10-19T13:03:30;98905.56;;;16.68;100.00
59787;BME280;45672;51.612;5.536;2023-10-19T13:05:57;98905.22;;;16.64;100.00
59787;BME280;45672;51.612;5.536;2023-10-19T13:08:23;98908.50;;;16.66;100.00
59787;BME280;45672;51.612;5.536;2023-10-19T13:10:52;98900.53;;;16.71;100.00
59787;BME280;45672;51.612;5.536;2023-10-19T13:13:18;98902.31;;;16.66;100.00
59787;BME280;45672;51.612;5.536;2023-10-19T13:15:45;98894.41;;;16.59;100.00
59787;BME280;45672;51.612;5.536;2023-10-19T13:18:12;98895.84;;;16.50;100.00